createdAt,value
2022-12-11T00:02:16.301Z,0
2022-12-11T00:07:35.218Z,0
2022-12-11T00:12:54.396Z,0
2022-12-11T00:18:14.039Z,0
2022-12-11T00:23:33.021Z,0
2022-12-11T00:28:52.606Z,0
2022-12-11T00:34:11.697Z,0
2022-12-11T00:39:31.201Z,0
2022-12-11T00:44:50.162Z,0
2022-12-11T00:50:09.999Z,0
2022-12-11T00:55:29.644Z,0
2022-12-11T01:00:48.641Z,0
2022-12-11T01:06:07.881Z,0
2022-12-11T01:11:27.089Z,0
2022-12-11T01:16:46.289Z,0
2022-12-11T01:22:05.548Z,0
2022-12-11T01:27:24.611Z,0
2022-12-11T01:32:44.293Z,0
2022-12-11T01:38:04.002Z,0
2022-12-11T01:43:23.024Z,0
2022-12-11T01:48:42.300Z,0
2022-12-11T01:54:00.872Z,0
2022-12-11T01:59:20.274Z,0
2022-12-11T02:04:39.295Z,0
2022-12-11T02:09:58.328Z,0
2022-12-11T02:15:17.007Z,0
2022-12-11T02:20:36.594Z,0
2022-12-11T02:25:55.863Z,0
2022-12-11T02:31:15.576Z,0
2022-12-11T02:36:34.713Z,0
2022-12-11T02:41:53.719Z,0
2022-12-11T02:47:13.358Z,0
2022-12-11T02:52:33.046Z,0
2022-12-11T02:57:52.124Z,0
2022-12-11T03:03:11.221Z,0
2022-12-11T03:08:30.838Z,0
2022-12-11T03:13:50.492Z,0
2022-12-11T03:19:10.336Z,0
2022-12-11T03:24:29.556Z,0
2022-12-11T03:29:49.340Z,0
2022-12-11T03:35:08.837Z,0
2022-12-11T03:40:28.277Z,0
2022-12-11T03:45:47.249Z,0
2022-12-11T03:51:06.224Z,0
2022-12-11T03:56:25.999Z,0
2022-12-11T04:01:45.118Z,0
2022-12-11T04:07:04.802Z,0
2022-12-11T04:12:24.061Z,0
2022-12-11T04:17:43.903Z,0
2022-12-11T04:23:02.981Z,0
2022-12-11T04:28:22.471Z,0
2022-12-11T04:33:41.526Z,0
2022-12-11T04:39:01.106Z,0
2022-12-11T04:44:20.417Z,0
2022-12-11T04:49:39.583Z,0
2022-12-11T04:54:59.170Z,0
2022-12-11T05:00:18.782Z,0
2022-12-11T05:05:38.303Z,0
2022-12-11T05:10:57.693Z,0
2022-12-11T05:16:16.790Z,0
2022-12-11T05:21:35.938Z,0
2022-12-11T05:26:55.016Z,0
2022-12-11T05:32:14.670Z,0
2022-12-11T05:37:33.659Z,0
2022-12-11T05:42:53.114Z,0
2022-12-11T05:48:12.855Z,0
2022-12-11T05:53:32.562Z,0
2022-12-11T05:58:51.605Z,0
2022-12-11T06:04:10.462Z,0
2022-12-11T06:09:29.444Z,0
2022-12-11T06:14:48.627Z,0
2022-12-11T06:20:08.769Z,0
2022-12-11T06:25:27.644Z,0
2022-12-11T06:30:46.494Z,0
2022-12-11T06:36:06.011Z,0
2022-12-11T06:41:25.513Z,0
2022-12-11T06:46:44.980Z,0
2022-12-11T06:52:04.049Z,0.0006
2022-12-11T06:57:23.553Z,0.0018
2022-12-11T07:02:43.380Z,0.0066
2022-12-11T07:08:02.476Z,0.0108
2022-12-11T07:13:21.545Z,0.0143
2022-12-11T07:19:55.757Z,0.0203
2022-12-11T07:24:02.129Z,0.0273
2022-12-11T07:29:21.229Z,0.0283
2022-12-11T07:34:39.280Z,0.0327
2022-12-11T07:39:58.775Z,0.0384
2022-12-11T07:45:17.718Z,0.0387
2022-12-11T07:50:39.706Z,0.0403
2022-12-11T07:55:56.694Z,0.0419
2022-12-11T08:01:15.159Z,0.0407
2022-12-11T08:06:34.118Z,0.0403
2022-12-11T08:11:53.618Z,0.0445
2022-12-11T08:17:12.917Z,0.0353
2022-12-11T08:22:32.447Z,0.0407
2022-12-11T08:27:51.857Z,0.0427
2022-12-11T08:33:11.477Z,0.041
2022-12-11T08:38:31.279Z,0.0434
2022-12-11T08:43:50.173Z,0.0457
2022-12-11T08:49:09.038Z,0.0436
2022-12-11T08:54:28.293Z,0.0445
2022-12-11T08:59:47.850Z,0.0443
2022-12-11T09:05:06.832Z,0.0474
2022-12-11T09:10:26.549Z,0.0455
2022-12-11T09:15:46.420Z,0.0446
2022-12-11T09:21:05.299Z,0.0416
2022-12-11T09:26:24.375Z,0.0456
2022-12-11T09:31:43.285Z,0.0455
2022-12-11T09:37:02.942Z,0.0512
2022-12-11T09:42:23.472Z,0.0555
2022-12-11T09:47:43.234Z,0.0515
2022-12-11T09:53:02.307Z,0.0495
2022-12-11T09:58:21.376Z,0.0462
2022-12-11T10:03:40.896Z,0.051
2022-12-11T10:08:59.956Z,0.0539
2022-12-11T10:14:18.857Z,0.0525
2022-12-11T10:19:38.558Z,0.0468
2022-12-11T10:25:10.456Z,0.0466
2022-12-11T10:30:16.926Z,0.0543
2022-12-11T10:35:36.317Z,0.052
2022-12-11T10:40:55.630Z,0.0453
2022-12-11T10:46:15.056Z,0.0457
2022-12-11T10:51:34.752Z,0.0463
2022-12-11T10:56:54.453Z,0.0527
2022-12-11T11:02:13.490Z,0.0493
2022-12-11T11:07:33.265Z,0.0553
2022-12-11T11:12:52.124Z,0.0487
2022-12-11T11:18:11.115Z,0.0479
2022-12-11T11:23:30.735Z,0.0422
2022-12-11T11:28:50.250Z,0.0477
2022-12-11T11:34:09.323Z,0.0467
2022-12-11T11:39:29.140Z,0.0454
2022-12-11T11:44:48.257Z,0.043
2022-12-11T11:50:07.433Z,0.0481
2022-12-11T11:55:26.654Z,0.0475
2022-12-11T12:00:45.918Z,0.0477
2022-12-11T12:06:05.697Z,0.0475
2022-12-11T12:11:24.609Z,0.0461
2022-12-11T12:16:52.479Z,0.0399
2022-12-11T12:22:02.928Z,0.0456
2022-12-11T12:27:50.834Z,0.043
2022-12-11T12:32:41.652Z,0.045
2022-12-11T12:38:00.987Z,0.0438
2022-12-11T12:43:19.968Z,0.048
2022-12-11T12:48:38.839Z,0.0404
2022-12-11T12:53:57.900Z,0.0422
2022-12-11T12:59:16.964Z,0.0445
2022-12-11T13:04:54.804Z,0.0442
2022-12-11T13:09:55.380Z,0.0418
2022-12-11T13:15:15.494Z,0.0425
2022-12-11T13:20:35.326Z,0.0379
2022-12-11T13:25:54.322Z,0.0371
2022-12-11T13:31:13.361Z,0.0354
2022-12-11T13:36:32.909Z,0.0346
2022-12-11T13:41:52.541Z,0.0329
2022-12-11T13:47:11.777Z,0.0333
2022-12-11T13:52:31.415Z,0.0294
2022-12-11T13:57:50.482Z,0.0349
2022-12-11T14:03:09.721Z,0.0452
2022-12-11T14:03:35.867Z,0.0449
2022-12-11T14:08:55.130Z,0.0487
2022-12-11T14:14:14.243Z,0.0467
2022-12-11T14:19:33.849Z,0.046
2022-12-11T14:24:53.365Z,0.0459
2022-12-11T14:30:13.084Z,0.0492
2022-12-11T14:35:37.195Z,0.0412
2022-12-11T14:40:51.237Z,0.04
2022-12-11T14:46:10.866Z,0.0348
2022-12-11T14:51:30.199Z,0.0335
2022-12-11T14:56:49.196Z,0.0296
2022-12-11T15:02:08.148Z,0.0317
2022-12-11T15:07:27.861Z,0.0281
2022-12-11T15:12:46.462Z,0.0278
2022-12-11T15:18:05.792Z,0.0226
2022-12-11T15:23:24.661Z,0.0215
2022-12-11T15:28:44.125Z,0.0126
2022-12-11T15:34:03.841Z,0.0006
2022-12-11T15:39:23.971Z,0
2022-12-11T15:44:42.842Z,0
2022-12-11T15:50:01.819Z,0
2022-12-11T15:55:21.491Z,0
2022-12-11T16:00:40.603Z,0
2022-12-11T16:05:59.554Z,0
2022-12-11T16:11:19.314Z,0
2022-12-11T16:16:38.692Z,0
2022-12-11T16:21:58.144Z,0
2022-12-11T16:27:21.518Z,0
2022-12-11T16:32:36.132Z,0
2022-12-11T16:37:55.512Z,0
2022-12-11T16:43:15.298Z,0
2022-12-11T16:48:34.168Z,0
2022-12-11T16:53:53.648Z,0
2022-12-11T16:59:13.235Z,0
2022-12-11T17:04:32.465Z,0
2022-12-11T17:09:51.370Z,0
2022-12-11T17:15:11.200Z,0
2022-12-11T17:20:29.962Z,0
2022-12-11T17:25:49.291Z,0
2022-12-11T17:31:08.729Z,0
2022-12-11T17:36:28.268Z,0
2022-12-11T17:41:47.561Z,0
2022-12-11T17:47:10.963Z,0
2022-12-11T17:52:29.655Z,0
2022-12-11T17:57:45.152Z,0
2022-12-11T18:04:19.369Z,0
2022-12-11T18:08:25.059Z,0
2022-12-11T18:13:43.361Z,0
2022-12-11T18:19:02.590Z,0
2022-12-11T18:24:22.002Z,0
2022-12-11T18:29:41.093Z,0
2022-12-11T18:35:00.737Z,0
2022-12-11T18:40:20.404Z,0
2022-12-11T18:45:39.823Z,0
2022-12-11T18:50:59.505Z,0
2022-12-11T18:56:19.057Z,0
2022-12-11T19:01:38.270Z,0
2022-12-11T19:06:57.217Z,0
2022-12-11T19:12:16.757Z,0
2022-12-11T19:17:36.557Z,0
2022-12-11T19:22:55.869Z,0
2022-12-11T19:28:14.957Z,0
2022-12-11T19:33:34.385Z,0
2022-12-11T19:38:57.869Z,0
2022-12-11T19:44:12.927Z,0
2022-12-11T19:49:32.491Z,0
2022-12-11T19:54:51.587Z,0
2022-12-11T20:00:10.691Z,0
2022-12-11T20:05:30.358Z,0
2022-12-11T20:10:49.349Z,0
2022-12-11T20:16:08.650Z,0
2022-12-11T20:21:28.222Z,0
2022-12-11T20:26:47.344Z,0
2022-12-11T20:32:06.772Z,0
2022-12-11T20:37:25.198Z,0
2022-12-11T20:42:44.135Z,0
2022-12-11T20:48:03.314Z,0
2022-12-11T20:53:22.830Z,0
2022-12-11T20:58:41.861Z,0
2022-12-11T21:04:01.097Z,0
2022-12-11T21:09:20.720Z,0
2022-12-11T21:14:39.950Z,0
2022-12-11T21:19:59.504Z,0
2022-12-11T21:25:18.771Z,0
2022-12-11T21:30:38.493Z,0
2022-12-11T21:35:58.771Z,0
2022-12-11T21:41:18.359Z,0
2022-12-11T21:46:36.773Z,0
2022-12-11T21:51:56.162Z,0
2022-12-11T21:57:15.153Z,0
2022-12-11T22:02:40.546Z,0
2022-12-11T22:07:54.171Z,0
2022-12-11T22:14:28.285Z,0
2022-12-11T22:18:33.959Z,0
2022-12-11T22:23:53.044Z,0
2022-12-11T22:29:13.044Z,0
2022-12-11T22:34:32.065Z,0
2022-12-11T22:39:51.492Z,0
2022-12-11T22:45:10.659Z,0
2022-12-11T22:50:29.424Z,0
2022-12-11T22:55:48.247Z,0
2022-12-11T23:01:06.952Z,0
2022-12-11T23:06:26.501Z,0
2022-12-11T23:11:46.323Z,0
2022-12-11T23:17:05.832Z,0
2022-12-11T23:22:24.736Z,0
2022-12-11T23:27:44.016Z,0
2022-12-11T23:33:02.903Z,0
2022-12-11T23:38:22.333Z,0
2022-12-11T23:43:42.346Z,0
2022-12-11T23:49:01.359Z,0
2022-12-11T23:54:20.298Z,0
